createdAt,value
2019-04-20T00:00:10.961Z,8.5267
2019-04-20T00:01:19.967Z,8.7377
2019-04-20T00:02:25.455Z,8.6950
2019-04-20T00:03:30.922Z,8.5134
2019-04-20T00:04:37.393Z,8.5695
2019-04-20T00:05:41.359Z,8.6683
2019-04-20T00:06:49.421Z,8.6549
2019-04-20T00:07:52.279Z,8.7110
2019-04-20T00:09:03.524Z,8.6122
2019-04-20T00:10:10.926Z,8.4573
2019-04-20T00:11:17.869Z,8.4012
2019-04-20T00:12:33.452Z,8.3719
2019-04-20T00:13:39.281Z,8.2864
2019-04-20T00:14:37.407Z,8.1582
2019-04-20T00:15:43.029Z,8.1022
2019-04-20T00:16:48.236Z,8.1449
2019-04-20T00:17:56.239Z,8.0327
2019-04-20T00:19:03.132Z,8.0594
2019-04-20T00:20:15.514Z,7.8058
2019-04-20T00:21:16.455Z,7.9179
2019-04-20T00:22:26.115Z,8.1022
2019-04-20T00:23:34.795Z,8.1903
2019-04-20T00:24:38.616Z,8.2036
2019-04-20T00:25:53.149Z,8.0728
2019-04-20T00:27:22.070Z,7.8912
2019-04-20T00:28:16.321Z,7.7790
2019-04-20T00:29:25.118Z,7.7363
2019-04-20T00:30:36.622Z,7.6802
2019-04-20T00:31:42.090Z,7.5521
2019-04-20T00:32:46.637Z,7.4826
2019-04-20T00:33:50.659Z,7.3838
2019-04-20T00:34:49.536Z,7.3838
2019-04-20T00:35:54.861Z,7.3384
2019-04-20T00:36:58.136Z,7.2824
2019-04-20T00:38:01.314Z,7.2824
2019-04-20T00:39:05.986Z,7.4826
2019-04-20T00:40:11.187Z,7.4826
2019-04-20T00:41:17.068Z,7.4105
2019-04-20T00:42:30.309Z,7.3384
2019-04-20T00:43:32.879Z,7.3838
2019-04-20T00:44:39.479Z,7.7790
2019-04-20T00:45:51.552Z,7.8912
2019-04-20T00:47:04.299Z,7.9179
2019-04-20T00:48:06.787Z,7.9046
2019-04-20T00:49:29.277Z,7.8058
2019-04-20T00:50:34.198Z,7.6375
2019-04-20T00:51:39.555Z,7.4399
2019-04-20T00:52:50.879Z,7.3678
2019-04-20T00:53:46.770Z,7.4266
2019-04-20T00:54:49.848Z,7.4693
2019-04-20T00:55:52.965Z,7.4105
2019-04-20T00:57:07.802Z,7.4693
2019-04-20T00:58:14.369Z,7.5093
2019-04-20T00:59:25.402Z,7.4693
2019-04-20T01:00:37.174Z,7.3972
2019-04-20T01:01:48.963Z,7.2690
2019-04-20T01:02:47.313Z,7.2396
2019-04-20T01:04:06.713Z,7.2530
2019-04-20T01:05:12.616Z,7.2957
2019-04-20T01:06:19.296Z,7.3838
2019-04-20T01:07:23.277Z,7.3384
2019-04-20T01:08:15.313Z,7.3838
2019-04-20T01:09:18.330Z,7.3384
2019-04-20T01:10:21.625Z,7.3251
2019-04-20T01:11:33.161Z,7.1408
2019-04-20T01:12:35.561Z,7.1969
2019-04-20T01:13:48.719Z,7.7363
2019-04-20T01:14:55.802Z,7.8351
2019-04-20T01:16:05.213Z,8.0888
2019-04-20T01:17:11.675Z,8.1743
2019-04-20T01:18:15.241Z,8.0594
2019-04-20T01:19:19.291Z,8.0167
2019-04-20T01:20:26.371Z,7.8191
2019-04-20T01:21:33.453Z,7.6082
2019-04-20T01:22:45.493Z,7.6642
2019-04-20T01:23:52.536Z,7.6642
2019-04-20T01:24:53.666Z,7.7203
2019-04-20T01:26:04.028Z,7.4266
2019-04-20T01:27:16.947Z,7.2396
2019-04-20T01:28:32.392Z,7.4105
2019-04-20T01:29:34.950Z,7.4399
2019-04-20T01:30:37.723Z,7.5654
2019-04-20T01:31:55.713Z,7.6082
2019-04-20T01:32:59.952Z,7.3972
2019-04-20T01:34:04.279Z,7.3251
2019-04-20T01:35:18.115Z,7.1969
2019-04-20T01:36:34.978Z,7.1702
2019-04-20T01:37:33.784Z,7.1141
2019-04-20T01:38:44.714Z,6.9860
2019-04-20T01:39:43.197Z,7.1702
2019-04-20T01:40:44.375Z,6.8872
2019-04-20T01:41:47.553Z,7.2690
2019-04-20T01:42:51.185Z,7.7790
2019-04-20T01:43:54.459Z,7.9473
2019-04-20T01:44:58.692Z,7.7630
2019-04-20T01:46:09.324Z,7.4105
2019-04-20T01:47:12.098Z,7.3251
2019-04-20T01:48:23.949Z,7.1969
2019-04-20T01:49:27.750Z,7.0981
2019-04-20T01:50:35.338Z,7.0287
2019-04-20T01:51:52.516Z,6.8605
2019-04-20T01:53:01.589Z,7.0287
2019-04-20T01:54:11.765Z,6.8738
2019-04-20T01:55:24.775Z,6.9593
2019-04-20T01:56:27.308Z,7.1141
2019-04-20T01:57:27.192Z,7.5654
2019-04-20T01:58:47.078Z,7.1969
2019-04-20T01:59:49.225Z,7.1408
2019-04-20T02:00:48.124Z,7.0420
2019-04-20T02:01:59.225Z,7.0581
2019-04-20T02:03:03.673Z,7.0420
2019-04-20T02:04:17.124Z,6.8044
2019-04-20T02:05:24.926Z,7.2824
2019-04-20T02:06:28.312Z,7.0981
2019-04-20T02:07:40.022Z,7.1141
2019-04-20T02:08:42.059Z,7.4105
2019-04-20T02:09:53.565Z,7.5948
2019-04-20T02:10:57.646Z,7.4826
2019-04-20T02:12:08.404Z,7.9339
2019-04-20T02:13:11.087Z,8.0167
2019-04-20T02:14:24.286Z,7.8351
2019-04-20T02:15:31.011Z,7.2129
2019-04-20T02:16:37.242Z,8.0167
2019-04-20T02:17:44.141Z,8.7110
2019-04-20T02:19:08.250Z,9.1222
2019-04-20T02:20:10.722Z,8.9353
2019-04-20T02:21:19.932Z,8.6683
2019-04-20T02:22:29.862Z,8.5267
2019-04-20T02:23:33.075Z,8.2597
2019-04-20T02:24:27.832Z,7.5948
2019-04-20T02:25:31.253Z,7.6936
2019-04-20T02:26:34.765Z,7.0848
2019-04-20T02:27:43.293Z,8.0167
2019-04-20T02:29:14.544Z,7.7630
2019-04-20T02:30:25.694Z,7.6375
2019-04-20T02:31:58.939Z,7.8351
2019-04-20T02:32:40.181Z,7.6242
2019-04-20T02:33:51.849Z,7.8752
2019-04-20T02:35:03.419Z,8.1449
2019-04-20T02:37:19.386Z,7.3384
2019-04-20T02:38:22.574Z,7.3838
2019-04-20T02:39:37.598Z,7.2263
2019-04-20T02:41:57.868Z,7.3117
2019-04-20T02:43:02.065Z,7.5387
2019-04-20T02:45:18.762Z,6.8311
2019-04-20T02:46:22.507Z,6.8444
2019-04-20T02:47:37.534Z,6.9165
2019-04-20T02:48:31.799Z,6.8738
2019-04-20T02:50:50.137Z,7.0581
2019-04-20T02:52:17.143Z,7.2396
2019-04-20T02:53:15.661Z,7.6936
2019-04-20T02:55:23.517Z,8.0327
2019-04-20T02:57:47.254Z,7.5254
2019-04-20T02:58:59.612Z,7.2263
2019-04-20T03:00:52.286Z,7.1569
2019-04-20T03:01:52.144Z,6.8044
2019-04-20T03:02:59.983Z,7.2129
2019-04-20T03:03:59.762Z,6.9593
2019-04-20T03:05:18.915Z,6.9593
2019-04-20T03:06:22.991Z,7.0153
2019-04-20T03:07:34.306Z,6.7189
2019-04-20T03:08:52.709Z,6.7483
2019-04-20T03:09:58.426Z,6.8738
2019-04-20T03:11:08.941Z,6.8444
2019-04-20T03:12:18.732Z,7.0287
2019-04-20T03:13:18.792Z,6.6896
2019-04-20T03:14:21.807Z,6.7750
2019-04-20T03:15:37.932Z,6.9432
2019-04-20T03:16:38.540Z,6.9432
2019-04-20T03:17:51.216Z,6.7750
2019-04-20T03:18:53.531Z,7.0714
2019-04-20T03:20:00.698Z,7.2957
2019-04-20T03:21:21.428Z,6.9299
2019-04-20T03:22:29.206Z,7.6642
2019-04-20T03:23:35.316Z,7.7203
2019-04-20T03:24:46.995Z,7.3972
2019-04-20T03:25:55.657Z,7.5093
2019-04-20T03:26:54.679Z,7.3384
2019-04-20T03:28:05.205Z,6.8444
2019-04-20T03:29:05.361Z,6.5614
2019-04-20T03:30:58.746Z,6.6495
2019-04-20T03:31:54.038Z,7.0581
2019-04-20T03:33:06.964Z,6.7750
2019-04-20T03:34:23.561Z,6.6896
2019-04-20T03:35:10.042Z,6.8177
2019-04-20T03:36:16.097Z,7.0581
2019-04-20T03:37:17.114Z,7.2957
2019-04-20T03:38:20.197Z,7.2690
2019-04-20T03:39:23.287Z,7.0714
2019-04-20T03:40:29.915Z,6.9860
2019-04-20T03:41:32.303Z,6.9165
2019-04-20T03:42:31.198Z,7.1408
2019-04-20T03:43:34.961Z,7.3384
2019-04-20T03:44:39.457Z,6.8311
2019-04-20T03:45:54.308Z,7.1275
2019-04-20T03:46:59.673Z,6.9432
2019-04-20T03:48:12.558Z,6.6896
2019-04-20T03:49:40.896Z,6.3210
2019-04-20T03:50:42.473Z,6.4359
2019-04-20T03:51:51.853Z,6.1528
2019-04-20T03:52:57.782Z,6.1662
2019-04-20T03:53:58.849Z,5.9419
2019-04-20T03:55:12.843Z,6.2943
2019-04-20T03:56:26.406Z,6.5320
2019-04-20T03:57:26.521Z,6.8044
2019-04-20T03:58:35.911Z,6.3638
2019-04-20T03:59:47.556Z,6.4359
2019-04-20T04:00:45.763Z,6.3371
2019-04-20T04:02:17.094Z,6.7483
2019-04-20T04:03:12.843Z,6.3638
2019-04-20T04:04:16.761Z,6.8605
2019-04-20T04:05:19.224Z,6.6068
2019-04-20T04:06:23.443Z,6.6335
2019-04-20T04:07:29.550Z,6.8311
2019-04-20T04:08:35.313Z,7.0581
2019-04-20T04:09:47.118Z,7.1141
2019-04-20T04:11:03.237Z,7.1569
2019-04-20T04:12:07.718Z,7.2690
2019-04-20T04:13:01.093Z,7.4693
2019-04-20T04:14:05.018Z,7.2690
2019-04-20T04:15:08.525Z,7.4826
2019-04-20T04:16:14.668Z,7.8485
2019-04-20T04:17:26.953Z,7.5654
2019-04-20T04:18:34.686Z,7.5521
2019-04-20T04:19:38.776Z,7.2957
2019-04-20T04:20:49.776Z,8.0327
2019-04-20T04:22:04.122Z,7.4399
2019-04-20T04:23:15.066Z,7.3518
2019-04-20T04:24:22.907Z,7.0020
2019-04-20T04:25:28.783Z,7.1969
2019-04-20T04:26:39.106Z,7.5387
2019-04-20T04:27:49.004Z,7.0287
2019-04-20T04:28:53.755Z,7.8618
2019-04-20T04:30:07.726Z,7.3251
2019-04-20T04:31:14.672Z,7.5387
2019-04-20T04:32:33.262Z,7.2129
2019-04-20T04:34:40.513Z,7.2957
2019-04-20T04:35:44.373Z,7.1569
2019-04-20T04:36:59.415Z,7.4960
2019-04-20T04:38:02.690Z,7.1408
2019-04-20T04:39:19.272Z,7.0020
2019-04-20T04:40:26.523Z,6.9593
2019-04-20T04:41:26.847Z,6.6762
2019-04-20T04:42:42.580Z,6.6762
2019-04-20T04:43:44.116Z,6.3931
2019-04-20T04:44:44.709Z,6.4359
2019-04-20T04:45:42.676Z,6.4198
2019-04-20T04:46:53.760Z,6.2810
2019-04-20T04:47:53.673Z,6.2516
2019-04-20T04:49:06.806Z,6.4626
2019-04-20T04:50:12.669Z,6.1955
2019-04-20T04:51:20.022Z,6.5320
2019-04-20T04:52:29.427Z,6.6628
2019-04-20T04:53:43.016Z,6.3371
2019-04-20T04:54:45.385Z,6.4920
2019-04-20T04:55:54.134Z,5.9979
2019-04-20T04:56:52.588Z,6.6201
2019-04-20T04:57:55.825Z,6.6335
2019-04-20T04:58:58.284Z,6.4626
2019-04-20T05:00:01.544Z,6.5053
2019-04-20T05:01:08.348Z,6.4065
2019-04-20T05:02:12.201Z,6.1822
2019-04-20T05:03:35.377Z,5.9686
2019-04-20T05:04:49.604Z,5.8858
2019-04-20T05:05:49.927Z,6.1662
2019-04-20T05:06:53.580Z,6.0834
2019-04-20T05:07:59.458Z,6.1528
2019-04-20T05:09:00.236Z,6.5934
2019-04-20T05:10:03.797Z,6.2943
2019-04-20T05:11:06.908Z,6.4920
2019-04-20T05:12:17.208Z,6.3371
2019-04-20T05:13:18.190Z,6.6628
2019-04-20T05:14:27.081Z,6.8444
2019-04-20T05:15:42.454Z,7.0020
2019-04-20T05:16:51.273Z,7.0714
2019-04-20T05:18:06.005Z,6.9860
2019-04-20T05:19:13.508Z,6.9860
2019-04-20T05:20:17.143Z,6.8044
2019-04-20T05:21:25.504Z,6.7617
2019-04-20T05:22:38.974Z,6.5747
2019-04-20T05:23:35.117Z,6.7323
2019-04-20T05:24:53.742Z,6.7323
2019-04-20T05:26:02.612Z,6.5187
2019-04-20T05:27:17.694Z,6.4198
2019-04-20T05:28:14.021Z,6.4626
2019-04-20T05:29:13.422Z,6.3210
2019-04-20T05:30:12.185Z,6.8444
2019-04-20T05:31:16.712Z,7.0020
2019-04-20T05:32:32.584Z,6.8044
2019-04-20T05:33:49.774Z,6.7483
2019-04-20T05:34:58.214Z,6.7617
2019-04-20T05:36:09.966Z,6.6201
2019-04-20T05:37:20.910Z,6.8738
2019-04-20T05:38:27.508Z,7.3678
2019-04-20T05:39:36.852Z,7.0848
2019-04-20T05:40:44.379Z,6.9165
2019-04-20T05:41:41.995Z,6.9165
2019-04-20T05:42:55.657Z,7.0153
2019-04-20T05:43:56.119Z,6.9726
2019-04-20T05:45:08.699Z,6.8738
2019-04-20T05:46:19.511Z,6.7884
2019-04-20T05:47:22.712Z,6.6896
2019-04-20T05:48:32.019Z,6.7483
2019-04-20T05:49:34.883Z,7.0287
2019-04-20T05:50:48.223Z,7.1702
2019-04-20T05:51:54.487Z,7.3972
2019-04-20T05:53:09.935Z,7.6642
2019-04-20T05:54:17.794Z,7.8752
2019-04-20T05:55:22.417Z,7.9179
2019-04-20T05:56:35.806Z,8.1289
2019-04-20T05:57:40.111Z,7.9740
2019-04-20T05:58:45.082Z,8.0594
2019-04-20T06:00:03.577Z,8.2597
2019-04-20T06:01:08.863Z,8.2864
2019-04-20T06:02:09.704Z,8.4707
2019-04-20T06:03:18.453Z,8.5000
2019-04-20T06:04:42.725Z,8.7243
2019-04-20T06:05:36.979Z,8.8499
2019-04-20T06:06:44.651Z,8.9513
2019-04-20T06:07:48.861Z,8.8792
2019-04-20T06:09:05.515Z,8.7938
2019-04-20T06:10:00.233Z,8.9673
2019-04-20T06:11:17.930Z,9.2477
2019-04-20T06:12:19.949Z,9.1489
2019-04-20T06:13:23.988Z,9.3893
2019-04-20T06:14:28.591Z,9.1489
2019-04-20T06:15:46.678Z,9.2771
2019-04-20T06:17:00.038Z,9.2771
2019-04-20T06:17:58.379Z,9.4720
2019-04-20T06:19:24.213Z,9.6002
2019-04-20T06:20:19.421Z,9.6269
2019-04-20T06:21:35.386Z,9.7150
2019-04-20T06:22:36.483Z,9.8138
2019-04-20T06:23:47.703Z,9.8005
2019-04-20T06:24:53.063Z,9.7871
2019-04-20T06:26:14.908Z,9.9687
2019-04-20T06:27:03.265Z,9.9126
2019-04-20T06:28:12.814Z,10.0248
2019-04-20T06:29:20.507Z,10.0248
2019-04-20T06:30:26.259Z,10.1530
2019-04-20T06:31:37.033Z,10.1102
2019-04-20T06:32:44.202Z,10.3078
2019-04-20T06:34:11.370Z,10.5348
2019-04-20T06:35:04.449Z,10.4494
2019-04-20T06:37:23.452Z,10.5055
2019-04-20T06:38:49.728Z,10.5348
2019-04-20T06:39:54.381Z,11.0128
2019-04-20T06:41:02.314Z,10.8312
2019-04-20T06:42:07.101Z,11.2558
2019-04-20T06:43:04.102Z,11.2558
2019-04-20T06:44:17.710Z,11.4107
2019-04-20T06:45:28.118Z,11.2131
2019-04-20T06:46:31.667Z,11.0422
2019-04-20T06:47:39.717Z,11.5656
2019-04-20T06:48:50.018Z,11.6777
2019-04-20T06:49:45.382Z,11.5095
2019-04-20T06:52:15.503Z,11.6938
2019-04-20T06:53:31.061Z,11.6777
2019-04-20T06:54:13.371Z,11.8513
2019-04-20T06:55:38.594Z,11.8513
2019-04-20T06:56:42.554Z,12.2011
2019-04-20T06:58:04.285Z,11.9902
2019-04-20T06:58:57.726Z,11.8914
2019-04-20T07:00:08.779Z,12.0623
2019-04-20T07:01:13.700Z,12.3560
2019-04-20T07:03:42.190Z,12.4441
2019-04-20T07:05:45.333Z,12.7405
2019-04-20T07:06:59.146Z,12.6978
2019-04-20T07:08:16.669Z,12.6284
2019-04-20T07:09:13.890Z,12.8099
2019-04-20T07:10:18.277Z,12.7832
2019-04-20T07:11:25.009Z,12.7832
2019-04-20T07:12:31.160Z,12.9515
2019-04-20T07:13:30.898Z,13.2345
2019-04-20T07:15:49.648Z,13.2639
2019-04-20T07:17:10.727Z,13.1945
2019-04-20T07:18:15.682Z,12.7111
2019-04-20T07:19:18.957Z,12.9087
2019-04-20T07:20:35.092Z,13.3066
2019-04-20T07:21:55.378Z,13.3894
2019-04-20T07:22:47.892Z,13.2505
2019-04-20T07:23:56.074Z,13.2505
2019-04-20T07:25:02.378Z,13.6030
2019-04-20T07:26:21.128Z,13.5737
2019-04-20T07:27:19.659Z,13.8861
2019-04-20T07:28:32.894Z,13.4615
2019-04-20T07:29:51.833Z,13.3200
2019-04-20T07:30:42.095Z,13.5176
2019-04-20T07:31:47.465Z,13.4615
2019-04-20T07:32:57.958Z,13.4749
2019-04-20T07:34:03.729Z,13.6591
2019-04-20T07:35:14.152Z,13.7579
2019-04-20T07:36:28.993Z,13.5443
2019-04-20T07:38:40.131Z,13.7579
2019-04-20T07:39:47.774Z,14.0116
2019-04-20T07:40:56.008Z,13.5042
2019-04-20T07:42:08.492Z,13.8006
2019-04-20T07:43:07.732Z,13.5870
2019-04-20T07:44:29.598Z,13.6858
2019-04-20T07:45:30.763Z,13.6030
2019-04-20T07:46:47.501Z,14.0543
2019-04-20T07:47:46.663Z,14.0116
2019-04-20T07:48:54.295Z,14.0116
2019-04-20T07:49:56.494Z,13.7846
2019-04-20T07:50:57.996Z,14.2519
2019-04-20T07:51:55.583Z,14.4068
2019-04-20T07:53:12.309Z,14.7192
2019-04-20T07:54:40.179Z,13.9555
2019-04-20T07:57:48.810Z,14.0837
2019-04-20T07:58:47.955Z,14.0837
2019-04-20T08:00:06.396Z,14.3507
2019-04-20T08:01:23.161Z,13.9288
2019-04-20T08:02:33.351Z,14.1959
2019-04-20T08:03:39.361Z,14.3080
2019-04-20T08:04:39.034Z,14.1691
2019-04-20T08:05:39.458Z,13.9155
2019-04-20T08:06:43.151Z,14.3240
2019-04-20T08:07:53.644Z,14.7059
2019-04-20T08:09:10.075Z,14.7059
2019-04-20T08:10:09.037Z,15.0717
2019-04-20T08:11:32.069Z,14.9035
2019-04-20T08:12:43.825Z,15.2026
2019-04-20T08:13:51.317Z,15.1865
2019-04-20T08:15:04.738Z,15.4696
2019-04-20T08:16:06.734Z,15.3708
2019-04-20T08:17:26.807Z,15.4536
2019-04-20T08:18:27.164Z,15.0290
2019-04-20T08:19:27.298Z,15.3574
2019-04-20T08:20:43.610Z,15.3281
2019-04-20T08:21:47.525Z,15.9369
2019-04-20T08:22:53.194Z,15.7366
2019-04-20T08:24:02.506Z,16.1345
2019-04-20T08:25:06.996Z,15.2159
2019-04-20T08:26:06.664Z,15.2026
2019-04-20T08:27:09.126Z,15.3975
2019-04-20T08:28:21.411Z,15.3975
2019-04-20T08:29:33.641Z,15.6672
2019-04-20T08:30:47.075Z,15.4135
2019-04-20T08:31:56.288Z,15.6512
2019-04-20T08:33:05.236Z,15.6806
2019-04-20T08:34:24.723Z,15.6939
2019-04-20T08:35:28.572Z,16.1906
2019-04-20T08:36:34.590Z,16.2173
2019-04-20T08:37:50.553Z,15.7233
2019-04-20T08:40:01.466Z,15.7794
2019-04-20T08:41:02.592Z,15.8648
2019-04-20T08:42:13.079Z,15.4269
2019-04-20T08:43:37.916Z,16.0491
2019-04-20T08:44:48.367Z,15.9209
2019-04-20T08:45:45.734Z,15.8942
2019-04-20T08:46:56.649Z,15.9796
2019-04-20T08:48:09.747Z,16.1185
2019-04-20T08:49:08.368Z,16.6285
2019-04-20T08:50:29.619Z,15.9636
2019-04-20T08:51:14.616Z,15.7073
2019-04-20T08:52:58.664Z,16.0624
2019-04-20T08:53:42.080Z,16.2894
2019-04-20T08:54:41.436Z,16.7834
2019-04-20T08:55:49.140Z,17.0237
2019-04-20T08:56:49.880Z,17.3362
2019-04-20T08:57:51.504Z,16.4015
2019-04-20T08:58:55.088Z,16.7273
2019-04-20T09:00:00.647Z,17.1092
2019-04-20T09:01:08.637Z,16.9676
2019-04-20T09:02:15.739Z,16.8822
2019-04-20T09:03:25.434Z,16.3722
2019-04-20T09:04:40.283Z,16.6579
2019-04-20T09:05:51.258Z,16.7834
2019-04-20T09:06:59.739Z,16.6712
2019-04-20T09:08:02.522Z,16.6285
2019-04-20T09:09:29.029Z,16.6846
2019-04-20T09:10:28.188Z,16.5858
2019-04-20T09:11:30.935Z,16.6846
2019-04-20T09:12:42.159Z,16.2734
2019-04-20T09:13:40.500Z,16.2039
2019-04-20T09:14:40.272Z,16.3588
2019-04-20T09:15:44.749Z,16.2894
2019-04-20T09:16:54.525Z,16.6285
2019-04-20T09:18:00.676Z,17.0104
2019-04-20T09:19:07.612Z,17.0237
2019-04-20T09:20:16.448Z,17.1920
2019-04-20T09:21:29.618Z,17.7020
2019-04-20T09:22:34.287Z,17.8702
2019-04-20T09:23:46.886Z,17.7714
2019-04-20T09:25:12.305Z,17.1653
2019-04-20T09:26:12.840Z,17.3629
2019-04-20T09:27:12.949Z,16.9543
2019-04-20T09:28:19.789Z,17.7020
2019-04-20T09:29:31.862Z,17.2507
2019-04-20T09:30:37.297Z,17.9717
2019-04-20T09:31:50.272Z,17.8862
2019-04-20T09:32:59.531Z,17.7447
2019-04-20T09:34:07.439Z,17.6326
2019-04-20T09:35:17.320Z,18.0011
2019-04-20T09:36:17.910Z,17.8008
2019-04-20T09:37:30.988Z,18.0438
2019-04-20T09:38:34.848Z,17.6326
2019-04-20T09:39:38.354Z,18.0278
2019-04-20T09:40:57.245Z,17.5765
2019-04-20T09:41:59.850Z,17.7447
2019-04-20T09:42:55.180Z,17.6326
2019-04-20T09:44:00.379Z,18.1132
2019-04-20T09:45:04.922Z,17.8702
2019-04-20T09:46:10.179Z,17.7314
2019-04-20T09:47:14.146Z,17.9877
2019-04-20T09:48:25.286Z,18.2815
2019-04-20T09:49:40.179Z,18.2681
2019-04-20T09:50:55.394Z,18.1559
2019-04-20T09:51:59.815Z,18.2120
2019-04-20T09:53:04.059Z,18.5645
2019-04-20T09:54:17.021Z,18.3242
2019-04-20T09:55:18.170Z,18.0839
2019-04-20T09:56:29.698Z,17.7581
2019-04-20T09:57:37.934Z,18.1987
2019-04-20T09:58:50.907Z,18.4657
2019-04-20T09:59:57.646Z,18.2120
2019-04-20T10:01:03.333Z,18.6660
2019-04-20T10:02:07.045Z,18.0144
2019-04-20T10:03:06.723Z,18.4924
2019-04-20T10:04:09.186Z,18.0438
2019-04-20T10:05:13.485Z,18.4924
2019-04-20T10:06:18.861Z,18.7488
2019-04-20T10:07:26.222Z,19.1733
2019-04-20T10:08:40.367Z,18.6927
2019-04-20T10:09:44.545Z,18.7781
2019-04-20T10:10:49.428Z,18.7915
2019-04-20T10:11:55.297Z,18.4096
2019-04-20T10:12:58.810Z,18.4096
2019-04-20T10:14:02.030Z,18.1132
2019-04-20T10:15:12.442Z,18.4363
2019-04-20T10:16:13.550Z,18.6233
2019-04-20T10:17:16.203Z,18.6233
2019-04-20T10:18:19.732Z,18.4657
2019-04-20T10:19:26.660Z,19.0452
2019-04-20T10:20:34.547Z,18.7087
2019-04-20T10:21:39.193Z,19.1146
2019-04-20T10:22:42.583Z,19.4137
2019-04-20T10:23:45.212Z,18.9197
2019-04-20T10:24:50.323Z,18.7781
2019-04-20T10:25:54.364Z,19.1440
2019-04-20T10:26:58.649Z,18.7781
2019-04-20T10:28:01.392Z,18.9197
2019-04-20T10:29:07.882Z,18.9330
2019-04-20T10:30:12.465Z,19.0585
2019-04-20T10:31:15.178Z,18.7221
2019-04-20T10:32:19.604Z,18.4791
2019-04-20T10:33:22.190Z,18.6927
2019-04-20T10:34:26.325Z,19.2695
2019-04-20T10:35:29.772Z,19.6807
2019-04-20T10:36:33.337Z,18.8769
2019-04-20T10:37:37.641Z,18.9197
2019-04-20T10:38:40.245Z,18.7221
2019-04-20T10:39:44.663Z,19.0024
2019-04-20T10:40:57.203Z,18.8476
2019-04-20T10:41:57.647Z,18.9891
2019-04-20T10:43:03.172Z,18.8903
2019-04-20T10:44:09.076Z,18.9464
2019-04-20T10:45:12.872Z,19.0452
2019-04-20T10:46:17.318Z,19.1012
2019-04-20T10:47:21.138Z,19.2695
2019-04-20T10:48:24.165Z,18.7915
2019-04-20T10:49:27.214Z,18.7915
2019-04-20T10:50:32.928Z,19.4858
2019-04-20T10:51:36.208Z,18.9036
2019-04-20T10:52:38.207Z,18.5912
2019-04-20T10:53:42.393Z,18.7354
2019-04-20T10:54:45.196Z,18.7488
2019-04-20T10:55:49.448Z,18.7915
2019-04-20T10:56:52.809Z,18.6099
2019-04-20T10:57:55.602Z,18.3803
2019-04-20T10:58:58.401Z,18.7915
2019-04-20T11:00:01.731Z,18.8342
2019-04-20T11:01:04.308Z,18.8903
2019-04-20T11:02:07.917Z,18.8048
2019-04-20T11:03:11.198Z,19.6246
2019-04-20T11:04:14.697Z,19.8650
2019-04-20T11:05:17.192Z,19.6540
2019-04-20T11:06:20.618Z,19.4991
2019-04-20T11:07:23.198Z,19.9931
2019-04-20T11:08:26.588Z,19.6807
2019-04-20T11:09:29.202Z,19.4270
2019-04-20T11:10:49.417Z,19.9344
2019-04-20T11:11:40.785Z,20.1907
2019-04-20T11:12:42.727Z,20.1774
2019-04-20T11:13:45.626Z,20.5432
2019-04-20T11:14:52.223Z,20.1213
2019-04-20T11:15:57.231Z,20.4738
2019-04-20T11:17:02.592Z,20.5566
2019-04-20T11:18:07.209Z,19.6540
2019-04-20T11:19:11.515Z,20.0092
2019-04-20T11:20:15.166Z,20.0919
2019-04-20T11:21:19.536Z,19.8783
2019-04-20T11:22:22.315Z,19.9931
2019-04-20T11:23:26.508Z,20.3323
2019-04-20T11:24:30.268Z,20.4177
2019-04-20T11:25:34.214Z,20.5165
2019-04-20T11:26:41.442Z,20.6874
2019-04-20T11:27:45.972Z,20.1774
2019-04-20T11:28:50.380Z,20.4578
2019-04-20T11:29:54.087Z,19.7662
2019-04-20T11:30:58.418Z,20.0919
2019-04-20T11:32:03.017Z,19.7234
2019-04-20T11:33:06.969Z,19.7955
2019-04-20T11:34:14.979Z,20.4578
2019-04-20T11:35:27.851Z,20.9277
2019-04-20T11:36:28.228Z,20.5432
2019-04-20T11:37:33.117Z,20.7141
2019-04-20T11:38:36.181Z,20.7568
2019-04-20T11:39:39.092Z,20.3616
2019-04-20T11:40:42.292Z,20.1907
2019-04-20T11:41:45.728Z,20.1907
2019-04-20T11:42:48.203Z,20.1774
2019-04-20T11:43:51.535Z,20.7435
2019-04-20T11:44:55.249Z,20.2762
2019-04-20T11:45:58.471Z,20.3750
2019-04-20T11:47:02.891Z,20.6447
2019-04-20T11:48:07.514Z,20.7568
2019-04-20T11:49:10.211Z,20.5566
2019-04-20T11:50:13.670Z,20.4738
2019-04-20T11:51:16.969Z,20.9838
2019-04-20T11:52:21.424Z,20.8557
2019-04-20T11:53:26.935Z,21.1975
2019-04-20T11:54:32.401Z,21.3363
2019-04-20T11:55:36.260Z,21.6354
2019-04-20T11:56:43.542Z,21.9024
2019-04-20T11:57:49.138Z,22.0439
2019-04-20T11:58:53.129Z,21.1254
2019-04-20T11:59:57.170Z,20.9678
2019-04-20T12:01:08.508Z,21.1120
2019-04-20T12:02:10.774Z,21.1414
2019-04-20T12:03:24.866Z,21.5793
2019-04-20T12:04:34.084Z,21.5072
2019-04-20T12:05:38.143Z,20.8289
2019-04-20T12:06:41.059Z,21.4351
2019-04-20T12:07:44.815Z,20.9277
2019-04-20T12:08:48.918Z,21.2108
2019-04-20T12:09:53.415Z,21.2108
2019-04-20T12:10:59.502Z,21.1547
2019-04-20T12:12:16.800Z,21.0105
2019-04-20T12:13:14.410Z,21.4084
2019-04-20T12:14:18.847Z,21.1254
2019-04-20T12:15:22.466Z,21.1975
2019-04-20T12:16:25.691Z,21.3657
2019-04-20T12:17:29.343Z,21.2963
2019-04-20T12:18:32.191Z,20.9678
2019-04-20T12:19:36.692Z,21.0533
2019-04-20T12:20:40.866Z,21.0986
2019-04-20T12:21:45.501Z,21.0986
2019-04-20T12:22:48.407Z,20.8690
2019-04-20T12:23:51.926Z,21.2402
2019-04-20T12:24:56.225Z,21.1414
2019-04-20T12:25:59.838Z,21.4645
2019-04-20T12:27:04.775Z,21.4511
2019-04-20T12:28:09.446Z,21.1254
2019-04-20T12:29:14.048Z,21.2242
2019-04-20T12:30:17.563Z,21.2535
2019-04-20T12:31:23.757Z,21.6915
2019-04-20T12:32:36.437Z,22.0012
2019-04-20T12:33:36.816Z,22.2149
2019-04-20T12:34:41.259Z,21.6781
2019-04-20T12:35:44.506Z,21.4511
2019-04-20T12:36:48.893Z,21.6648
2019-04-20T12:37:52.211Z,21.5339
2019-04-20T12:38:55.182Z,21.2963
2019-04-20T12:39:58.190Z,21.3230
2019-04-20T12:41:04.239Z,21.5206
2019-04-20T12:42:10.075Z,21.1975
2019-04-20T12:43:15.153Z,20.8289
2019-04-20T12:44:19.405Z,21.0666
2019-04-20T12:45:22.188Z,21.3096
2019-04-20T12:46:26.397Z,21.5339
2019-04-20T12:47:29.865Z,21.7342
2019-04-20T12:48:33.629Z,21.7903
2019-04-20T12:49:36.205Z,22.2442
2019-04-20T12:50:39.592Z,21.8330
2019-04-20T12:51:50.747Z,21.6087
2019-04-20T12:52:50.764Z,20.9972
2019-04-20T12:53:53.183Z,21.3657
2019-04-20T12:54:58.333Z,21.5072
2019-04-20T12:56:04.297Z,21.6514
2019-04-20T12:57:07.192Z,21.5927
2019-04-20T12:58:10.405Z,21.4778
2019-04-20T12:59:13.766Z,21.4511
2019-04-20T13:00:17.391Z,21.4645
2019-04-20T13:01:21.095Z,21.2535
2019-04-20T13:02:25.261Z,21.2108
2019-04-20T13:03:28.172Z,21.4084
2019-04-20T13:04:31.168Z,21.4645
2019-04-20T13:05:34.180Z,21.5206
2019-04-20T13:06:38.912Z,21.5633
2019-04-20T13:07:47.303Z,21.5793
2019-04-20T13:08:53.785Z,21.5793
2019-04-20T13:09:59.138Z,21.9024
2019-04-20T13:11:04.482Z,21.8196
2019-04-20T13:12:10.582Z,21.8891
2019-04-20T13:13:16.357Z,21.9318
2019-04-20T13:14:20.071Z,22.1321
2019-04-20T13:15:24.473Z,22.0573
2019-04-20T13:16:28.153Z,22.4125
2019-04-20T13:17:32.322Z,22.2442
2019-04-20T13:18:35.203Z,22.0012
2019-04-20T13:19:39.132Z,21.6648
2019-04-20T13:20:43.921Z,21.4511
2019-04-20T13:21:47.299Z,21.3523
2019-04-20T13:22:50.905Z,21.7342
2019-04-20T13:23:55.327Z,21.6087
2019-04-20T13:24:59.239Z,21.6354
2019-04-20T13:26:02.688Z,21.6648
2019-04-20T13:27:09.040Z,21.2802
2019-04-20T13:28:12.874Z,21.3363
2019-04-20T13:29:17.161Z,21.5793
2019-04-20T13:30:20.272Z,21.6220
2019-04-20T13:31:25.861Z,21.5206
2019-04-20T13:32:31.879Z,21.6648
2019-04-20T13:33:36.914Z,21.7208
2019-04-20T13:34:42.330Z,21.9184
2019-04-20T13:35:46.258Z,21.8891
2019-04-20T13:36:50.503Z,21.9024
2019-04-20T13:37:54.143Z,22.1027
2019-04-20T13:38:59.446Z,22.1588
2019-04-20T13:40:03.012Z,22.1027
2019-04-20T13:41:06.328Z,21.9024
2019-04-20T13:42:16.055Z,21.7903
2019-04-20T13:43:17.635Z,21.9318
2019-04-20T13:44:20.185Z,22.3137
2019-04-20T13:45:24.566Z,22.3297
2019-04-20T13:46:29.097Z,22.4846
2019-04-20T13:47:32.767Z,22.1881
2019-04-20T13:48:35.187Z,22.4418
2019-04-20T13:49:38.869Z,21.8624
2019-04-20T13:50:42.307Z,22.0172
2019-04-20T13:51:46.330Z,21.9745
2019-04-20T13:52:49.177Z,22.0439
2019-04-20T13:53:53.396Z,22.1454
2019-04-20T13:54:56.187Z,22.4979
2019-04-20T13:55:59.281Z,22.3724
2019-04-20T13:57:02.172Z,22.3297